Terminal Aerodrome Forecast
Issued by NWS Pittsburgh, PA

Current Version | Previous Version | Graphics & Text | Print | Product List | Glossary On
Versions: 1 2 3 4 5 6 7 8 9 10 11 12 13 14 15 16 17 18 19 20 21 22 23 24 25 26 27 28 29 30 31 32 33 34
000
FTUS41 KPBZ 281156 CCA
TAFPIT
TAF COR
KPIT 281156Z 2812/2918 17003KT 5SM -SHRA BR SCT010 OVC015
     FM281500 32005KT P6SM -SHRA OVC008
     FM281800 33010KT P6SM OVC015
     FM290300 33005KT P6SM OVC008=

USA.gov is the U.S. government's official web portal to all federal, state and local government web resources and services.